Williams, Minnesota
Current Conditions -  °F | °C
As of 3:53 PM on Wednesday 22 Oct 2014 (Local Time) from KBDE Reporting Station
Clear Clear  
Wind Chill: 61°   Ceiling: Unl
Heat Index: 61°   Visibility: 10mi
Dew Point: 44°   Wind: 20mph
Humidity: 54%   Direction: 190°S
Pressure: 29.86"   Gusts: 28mph
Location:  48.77°N, 94.96°W
Report Text: KBDE 222053Z AUTO 19017G24KT 10SM CLR 16/07 A2986 RMK AO2 SLP117 T01610067 56013 TSNO
Loading
Personal Weather Stations






























Interactive Weather Map
Tropical Storm Tracking
New forecast layout! Learn more

10-Day Weather Forecast

Advertisements
Track Severe Weather on mobile